Grayson, Georgia
Current Conditions -  °F | °C
As of 3:10 AM on Friday 28 Nov 2014 (Local Time) from KWDR Reporting Station
Clear Clear  
Wind Chill: 25°   Ceiling: Unl
Heat Index: 32°   Visibility: 10mi
Dew Point: 26°   Wind: 8mph
Humidity: 80%   Direction: 310°NW
Pressure: 30.37"   Gusts: NA
Location:  33.89°N, 83.96°W
Report Text: KWDR 280810Z AUTO 31007KT 10SM CLR 00/M03 A3037 RMK AO2 T00001031
Loading
Personal Weather Stations






























Interactive Weather Map New forecast layout! Learn more

10-Day Weather Forecast

Advertisements
Track Severe Weather on mobile